Time;durP1;ratioP1;P1;durP2;ratioP2;P2;SDS_P1;SDS_P2;PMS_P1;PMS_P2;Temp;Humidity;BMP_temperature;BMP_pressure;BME280_temperature;BME280_humidity;BME280_pressure;Samples;Min_cycle;Max_cycle;Signal;HPM_P1;HPM_P2
2024/01/23 00:01:42;;;;;;;61.92;41.35;;;;;;;16.48;38.72;93579.38;5041720;28;20052;-91
2024/01/23 00:04:07;;;;;;;68.38;43.67;;;;;;;16.46;38.34;93588.03;5044051;28;20044;-91
2024/01/23 00:06:33;;;;;;;63.20;41.72;;;;;;;16.45;38.53;93584.56;5036068;28;20049;-85
2024/01/23 00:08:58;;;;;;;63.67;42.28;;;;;;;16.46;38.71;93591.50;5021014;28;20041;-86
2024/01/23 00:11:24;;;;;;;63.70;41.67;;;;;;;16.48;38.70;93587.53;5032215;28;20090;-87
2024/01/23 00:13:49;;;;;;;61.10;42.42;;;;;;;16.45;38.73;93583.84;5021491;28;20052;-85
2024/01/23 00:16:14;;;;;;;61.05;41.53;;;;;;;16.45;38.34;93597.50;5037411;28;20041;-88
2024/01/23 00:18:40;;;;;;;61.25;41.85;;;;;;;16.46;38.55;93601.69;5030720;28;20457;-86
2024/01/23 00:21:05;;;;;;;56.03;39.60;;;;;;;16.46;38.51;93604.41;5032155;28;20534;-86
2024/01/23 00:23:31;;;;;;;61.10;42.22;;;;;;;16.44;38.71;93598.72;5065832;28;20045;-88
2024/01/23 00:25:56;;;;;;;60.70;39.83;;;;;;;16.42;38.66;93582.84;5028359;28;20703;-89
2024/01/23 00:28:22;;;;;;;62.83;41.67;;;;;;;16.39;38.49;93592.00;5037529;28;21115;-87
2024/01/23 00:30:48;;;;;;;60.22;38.42;;;;;;;16.41;38.60;93605.16;5021420;28;20148;-87
2024/01/23 00:33:13;;;;;;;62.47;40.88;;;;;;;16.40;38.73;93598.97;5005718;28;20056;-87
2024/01/23 00:35:40;;;;;;;62.60;38.70;;;;;;;16.39;38.75;93604.91;5023959;28;20689;-88
2024/01/23 00:38:05;;;;;;;62.03;41.20;;;;;;;16.43;38.67;93597.22;5054781;28;20037;-89
2024/01/23 00:40:31;;;;;;;55.40;38.63;;;;;;;16.45;38.46;93600.22;5038997;28;20542;-85
2024/01/23 00:42:56;;;;;;;57.85;38.45;;;;;;;16.43;39.07;93599.97;5035800;28;20124;-89
2024/01/23 00:45:22;;;;;;;56.85;37.08;;;;;;;16.45;38.98;93598.22;5047365;28;20220;-88
2024/01/23 00:47:47;;;;;;;60.50;38.50;;;;;;;16.40;38.83;93598.97;5047055;28;20450;-89
2024/01/23 00:50:13;;;;;;;57.80;36.40;;;;;;;16.42;38.63;93609.38;5030467;28;20606;-89
2024/01/23 00:52:38;;;;;;;57.60;36.13;;;;;;;16.43;38.55;93600.72;5047595;28;20146;-85
2024/01/23 00:55:04;;;;;;;53.38;35.92;;;;;;;16.42;39.01;93604.69;5030088;28;20750;-85
2024/01/23 00:57:30;;;;;;;57.53;37.50;;;;;;;16.42;38.94;93603.94;5048252;28;20044;-88
2024/01/23 00:59:56;;;;;;;58.15;38.03;;;;;;;16.41;38.90;93597.72;5030966;28;20132;-85
2024/01/23 01:02:21;;;;;;;55.38;37.00;;;;;;;16.45;38.75;93600.22;5039860;28;20048;-88
2024/01/23 01:04:46;;;;;;;55.05;36.80;;;;;;;16.44;38.99;93606.91;5067245;28;20037;-87
2024/01/23 01:07:13;;;;;;;54.47;36.35;;;;;;;16.42;38.87;93618.31;5066709;28;20056;-91
2024/01/23 01:09:38;;;;;;;57.28;37.72;;;;;;;16.45;38.90;93606.41;5050681;28;20115;-86
2024/01/23 01:12:04;;;;;;;53.83;36.05;;;;;;;16.46;38.94;93610.63;5050108;28;20504;-89
2024/01/23 01:14:30;;;;;;;47.50;35.05;;;;;;;16.49;38.78;93621.78;5030237;28;20459;-85
2024/01/23 01:16:55;;;;;;;57.25;35.13;;;;;;;16.50;39.05;93621.28;5033066;28;20423;-85
2024/01/23 01:19:20;;;;;;;55.90;36.15;;;;;;;16.47;38.77;93641.38;5035699;28;20239;-87
2024/01/23 01:21:46;;;;;;;51.85;34.25;;;;;;;16.48;38.99;93642.13;5042303;28;20466;-86
2024/01/23 01:24:12;;;;;;;52.60;34.60;;;;;;;16.44;38.88;93634.94;5046464;28;20060;-87
2024/01/23 01:26:40;;;;;;;51.08;33.05;;;;;;;16.39;39.06;93638.41;5029528;28;20048;-88
2024/01/23 01:29:06;;;;;;;50.50;34.38;;;;;;;16.43;38.65;93638.91;5005836;28;20037;-89
2024/01/23 01:31:32;;;;;;;54.38;35.03;;;;;;;16.43;39.19;93638.16;5014156;28;20045;-87
2024/01/23 01:33:57;;;;;;;51.63;34.05;;;;;;;16.44;39.11;93645.84;5046571;28;20036;-89
2024/01/23 01:36:23;;;;;;;48.20;33.53;;;;;;;16.39;39.27;93643.84;5034840;28;20842;-88
2024/01/23 01:38:49;;;;;;;49.03;34.22;;;;;;;16.40;39.23;93661.72;5036433;28;20404;-85
2024/01/23 01:41:15;;;;;;;52.97;33.78;;;;;;;16.40;39.19;93644.59;5031935;28;20041;-87
2024/01/23 01:43:40;;;;;;;51.00;34.15;;;;;;;16.42;39.39;93653.03;5029874;28;20501;-87
2024/01/23 01:46:16;;;;;;;55.88;35.78;;;;;;;16.43;38.92;93641.63;5029445;28;20745;-85
2024/01/23 01:48:41;;;;;;;47.08;32.35;;;;;;;16.47;38.83;93633.19;5053602;28;20045;-86
2024/01/23 01:51:07;;;;;;;45.03;31.60;;;;;;;16.43;39.00;93633.44;5037029;28;20060;-85
2024/01/23 01:53:33;;;;;;;45.65;31.85;;;;;;;16.45;39.13;93630.22;5038477;28;20048;-85
2024/01/23 01:55:59;;;;;;;49.88;32.55;;;;;;;16.45;39.26;93627.50;5036048;28;20033;-88
2024/01/23 01:58:24;;;;;;;54.28;34.47;;;;;;;16.46;38.90;93631.69;5049576;28;20040;-85
2024/01/23 02:00:52;;;;;;;44.47;30.25;;;;;;;16.44;39.04;93624.03;5026935;28;20462;-85
2024/01/23 02:03:17;;;;;;;45.20;30.48;;;;;;;16.40;39.42;93626.25;5038608;28;20037;-90
2024/01/23 02:05:43;;;;;;;47.22;31.33;;;;;;;16.39;39.07;93622.03;5048713;28;20412;-87
2024/01/23 02:08:08;;;;;;;45.88;31.85;;;;;;;16.39;39.15;93635.66;5065180;28;20139;-84
2024/01/23 02:10:34;;;;;;;46.28;30.05;;;;;;;16.41;39.02;93627.75;5025333;28;20075;-86
2024/01/23 02:12:59;;;;;;;45.45;32.05;;;;;;;16.40;39.20;93622.78;5030484;28;20037;-84
2024/01/23 02:15:25;;;;;;;48.03;32.78;;;;;;;16.36;39.03;93625.72;5029130;28;20509;-87
2024/01/23 02:17:50;;;;;;;42.47;29.60;;;;;;;16.38;39.50;93625.25;5045004;28;20511;-90
2024/01/23 02:20:15;;;;;;;47.40;29.02;;;;;;;16.38;39.14;93617.81;5036927;28;20445;-85
2024/01/23 02:22:41;;;;;;;47.17;31.50;;;;;;;16.34;39.24;93624.72;5053322;28;20456;-90
2024/01/23 02:25:07;;;;;;;45.70;30.02;;;;;;;16.40;39.02;93611.84;5045596;28;20442;-86
2024/01/23 02:27:33;;;;;;;49.72;31.50;;;;;;;16.36;39.24;93619.53;5029664;28;20040;-85
2024/01/23 02:29:58;;;;;;;46.80;31.15;;;;;;;16.39;39.40;93627.47;5046682;28;20094;-85
2024/01/23 02:32:24;;;;;;;44.55;30.45;;;;;;;16.39;39.40;93627.47;5024923;28;20983;-88
2024/01/23 02:34:49;;;;;;;40.08;28.55;;;;;;;16.30;39.37;93616.78;5059053;28;20049;-85
2024/01/23 02:37:15;;;;;;;45.33;29.33;;;;;;;16.39;39.31;93629.47;5039766;28;20052;-84
2024/01/23 02:39:40;;;;;;;45.20;29.55;;;;;;;16.40;39.23;93620.03;5028367;28;20407;-86
2024/01/23 02:42:09;;;;;;;46.53;31.70;;;;;;;16.40;38.99;93607.16;5014116;28;20538;-87
2024/01/23 02:44:34;;;;;;;45.70;29.08;;;;;;;16.37;39.23;93607.38;5025549;28;20055;-89
2024/01/23 02:46:59;;;;;;;43.20;28.15;;;;;;;16.39;39.48;93605.66;5065130;28;20040;-85
2024/01/23 02:49:25;;;;;;;42.67;28.10;;;;;;;16.35;39.29;93604.41;5021875;28;20402;-89
2024/01/23 02:51:52;;;;;;;43.28;28.23;;;;;;;16.40;39.50;93618.06;5025950;28;20426;-85
2024/01/23 02:54:17;;;;;;;43.17;28.38;;;;;;;16.40;39.30;93611.84;5030774;28;20040;-86
2024/01/23 02:56:44;;;;;;;43.55;29.50;;;;;;;16.38;39.11;93620.53;5054641;28;20052;-87
2024/01/23 02:59:09;;;;;;;37.42;26.17;;;;;;;16.39;39.24;93624.00;5047709;28;20055;-85
2024/01/23 03:01:35;;;;;;;42.65;28.20;;;;;;;16.36;39.49;93636.66;5037426;28;20045;-88
2024/01/23 03:04:00;;;;;;;38.70;25.88;;;;;;;16.40;39.59;93634.44;5012119;28;20448;-84
2024/01/23 03:06:26;;;;;;;42.33;27.60;;;;;;;16.39;39.42;93645.84;5052859;28;20037;-85
2024/01/23 03:08:51;;;;;;;42.47;28.30;;;;;;;16.39;39.43;93637.66;5042759;28;20495;-91
2024/01/23 03:11:17;;;;;;;43.13;27.90;;;;;;;16.39;39.15;93649.31;5025768;28;20107;-86
2024/01/23 03:13:43;;;;;;;38.70;26.15;;;;;;;16.42;39.46;93655.78;5018429;28;20048;-86
2024/01/23 03:16:08;;;;;;;39.88;25.83;;;;;;;16.43;39.73;93643.63;5057573;28;20045;-90
2024/01/23 03:18:34;;;;;;;35.00;24.77;;;;;;;16.40;39.33;93650.06;5028066;28;20053;-85
2024/01/23 03:20:59;;;;;;;37.55;25.65;;;;;;;16.43;39.27;93646.34;5031326;28;20045;-85
2024/01/23 03:23:25;;;;;;;38.15;25.42;;;;;;;16.44;39.29;93650.56;5024819;28;20466;-85
2024/01/23 03:25:50;;;;;;;37.42;26.17;;;;;;;16.39;39.28;93635.66;5026439;28;20043;-87
2024/01/23 03:28:16;;;;;;;40.05;26.27;;;;;;;16.42;39.30;93639.41;5045101;28;20423;-88
2024/01/23 03:30:41;;;;;;;39.17;25.20;;;;;;;16.41;39.47;93646.84;5039425;28;20045;-86
2024/01/23 03:33:07;;;;;;;36.72;25.85;;;;;;;16.40;39.67;93656.25;5031967;28;20126;-87
2024/01/23 03:35:32;;;;;;;35.50;25.35;;;;;;;16.44;39.21;93694.22;5019548;28;20428;-84
2024/01/23 03:37:58;;;;;;;36.45;25.92;;;;;;;16.39;39.37;93671.13;5044813;28;20419;-85
2024/01/23 03:40:23;;;;;;;39.50;26.67;;;;;;;16.43;39.51;93684.56;5024344;28;20134;-87
2024/01/23 03:42:49;;;;;;;41.78;26.17;;;;;;;16.43;39.52;93679.84;5023179;28;20407;-84
2024/01/23 03:45:14;;;;;;;36.97;24.92;;;;;;;16.44;39.27;93696.97;5014023;28;20037;-88
2024/01/23 03:47:40;;;;;;;35.30;24.58;;;;;;;16.46;39.30;93683.53;5028480;28;20503;-86
2024/01/23 03:50:05;;;;;;;36.83;25.25;;;;;;;16.46;39.54;93687.03;5048396;28;20036;-84
2024/01/23 03:52:31;;;;;;;36.60;25.00;;;;;;;16.42;39.46;93692.00;5031221;28;20416;-85
2024/01/23 03:54:56;;;;;;;42.10;24.65;;;;;;;16.46;39.31;93706.13;5039142;28;20040;-84
2024/01/23 03:57:22;;;;;;;35.20;23.75;;;;;;;16.39;39.81;93709.34;5054677;28;20629;-85
2024/01/23 03:59:47;;;;;;;36.42;23.58;;;;;;;16.42;39.60;93716.53;5041949;28;20470;-85
2024/01/23 04:02:13;;;;;;;33.78;23.42;;;;;;;16.43;39.55;93715.31;5048629;28;20127;-84
2024/01/23 04:04:38;;;;;;;31.63;22.52;;;;;;;16.44;39.35;93725.00;5014630;28;20462;-87
2024/01/23 04:07:04;;;;;;;36.03;23.73;;;;;;;16.45;39.58;93718.28;5024088;28;20053;-84
2024/01/23 04:09:29;;;;;;;32.90;24.10;;;;;;;16.40;39.45;93729.94;5044104;28;20090;-83
2024/01/23 04:11:56;;;;;;;32.25;21.75;;;;;;;16.39;39.71;93733.16;5023147;28;20511;-84
2024/01/23 04:14:21;;;;;;;34.85;23.55;;;;;;;16.42;39.46;93735.66;5062886;28;20056;-86
2024/01/23 04:16:47;;;;;;;33.15;22.45;;;;;;;16.41;39.55;93752.50;5014329;28;20049;-86
2024/01/23 04:19:12;;;;;;;35.30;23.23;;;;;;;16.39;39.44;93738.59;5046204;28;20033;-84
2024/01/23 04:21:38;;;;;;;37.38;24.85;;;;;;;16.38;39.48;93739.84;5053850;28;20805;-84
2024/01/23 04:24:03;;;;;;;31.17;23.40;;;;;;;16.40;39.58;93751.00;5039545;28;20053;-85
2024/01/23 04:26:29;;;;;;;37.53;23.60;;;;;;;16.34;39.82;93756.44;5012862;28;20443;-84
2024/01/23 04:28:55;;;;;;;33.03;24.02;;;;;;;16.45;40.41;93736.66;5032065;28;20600;-84
2024/01/23 04:31:20;;;;;;;34.95;23.30;;;;;;;16.48;39.75;93743.84;5048707;28;20104;-84
2024/01/23 04:33:46;;;;;;;50.75;24.70;;;;;;;16.49;39.53;93741.84;5051824;28;20041;-85
2024/01/23 04:36:12;;;;;;;39.70;23.20;;;;;;;16.53;39.90;93759.50;5047675;28;20049;-84
2024/01/23 04:38:38;;;;;;;34.35;23.88;;;;;;;16.55;39.53;93762.47;5033817;28;20053;-85
2024/01/23 04:41:04;;;;;;;36.47;24.45;;;;;;;16.50;39.67;93762.44;5041925;28;20050;-84
2024/01/23 04:43:29;;;;;;;35.65;24.15;;;;;;;16.62;39.19;93764.00;5059359;28;20033;-89
2024/01/23 04:45:55;;;;;;;47.60;29.30;;;;;;;16.63;39.32;93755.34;5043535;28;20862;-86
2024/01/23 04:48:20;;;;;;;32.90;23.65;;;;;;;16.58;39.20;93758.78;5041924;28;20048;-87
2024/01/23 04:50:46;;;;;;;61.50;33.05;;;;;;;16.58;39.71;93753.31;5042858;28;20489;-89
2024/01/23 04:53:11;;;;;;;35.63;24.50;;;;;;;16.56;39.36;93760.50;5029274;28;20051;-91
2024/01/23 04:55:36;;;;;;;44.80;27.88;;;;;;;16.57;39.62;93748.34;5035845;28;20557;-88
2024/01/23 04:58:02;;;;;;;40.08;25.20;;;;;;;16.59;39.66;93754.06;5056863;28;20809;-87
2024/01/23 05:00:28;;;;;;;38.05;26.00;;;;;;;16.55;39.72;93767.94;5036154;28;20041;-84
2024/01/23 05:02:53;;;;;;;37.42;25.63;;;;;;;16.58;39.61;93775.16;5048206;28;20054;-84
2024/01/23 05:05:19;;;;;;;37.45;25.75;;;;;;;16.57;39.88;93778.38;5028936;28;20411;-85
2024/01/23 05:07:44;;;;;;;40.75;25.45;;;;;;;16.56;39.86;93771.41;5028538;28;20415;-84
2024/01/23 05:10:10;;;;;;;42.60;22.73;;;;;;;16.52;39.36;93779.81;5029820;28;20416;-84
2024/01/23 05:12:36;;;;;;;27.98;15.82;;;;;;;16.33;39.23;93776.75;5018791;28;20056;-84
2024/01/23 05:15:03;;;;;;;40.88;21.05;;;;;;;16.32;39.67;93788.16;5049209;28;20084;-84
2024/01/23 05:17:29;;;;;;;51.83;23.13;;;;;;;16.31;39.58;93783.94;5027939;28;20099;-84
2024/01/23 05:19:54;;;;;;;73.07;35.38;;;;;;;16.44;39.61;93787.00;5047528;28;20099;-84
2024/01/23 05:22:20;;;;;;;86.00;36.45;;;;;;;16.49;39.91;93769.13;5045509;28;20575;-88
2024/01/23 05:24:45;;;;;;;89.97;35.53;;;;;;;16.46;39.54;93776.31;5066310;28;20778;-84
2024/01/23 05:27:11;;;;;;;84.18;36.58;;;;;;;16.37;40.01;93779.25;5031367;28;20043;-83
2024/01/23 05:29:36;;;;;;;79.65;34.67;;;;;;;16.48;39.88;93786.75;5045441;28;20411;-84
2024/01/23 05:32:02;;;;;;;76.47;39.45;;;;;;;16.46;39.77;93777.06;5029677;28;20102;-83
2024/01/23 05:34:27;;;;;;;126.18;69.32;;;;;;;16.48;39.73;93792.19;5048540;28;20380;-84
2024/01/23 05:36:52;;;;;;;93.90;37.97;;;;;;;16.51;40.10;93791.97;5017885;28;20041;-86
2024/01/23 05:39:18;;;;;;;132.45;84.07;;;;;;;16.50;39.81;93798.66;5041025;28;20857;-83
2024/01/23 05:41:43;;;;;;;126.10;72.88;;;;;;;16.42;39.98;93803.13;5031550;28;20048;-84
2024/01/23 05:44:09;;;;;;;110.55;43.67;;;;;;;16.51;40.03;93802.91;5040497;28;20408;-86
2024/01/23 05:46:35;;;;;;;109.20;42.58;;;;;;;16.54;39.85;93812.09;5034541;28;20508;-89
2024/01/23 05:49:00;;;;;;;105.78;46.55;;;;;;;16.55;39.89;93819.78;5012799;28;20120;-87
2024/01/23 05:51:26;;;;;;;102.28;48.05;;;;;;;16.58;40.04;93831.72;5023432;28;20411;-85
2024/01/23 05:53:51;;;;;;;82.47;40.28;;;;;;;16.45;40.11;93837.63;5012286;28;20096;-86
2024/01/23 05:56:17;;;;;;;86.10;40.55;;;;;;;16.48;40.02;93842.06;5028342;28;20364;-86
2024/01/23 05:58:43;;;;;;;123.30;46.47;;;;;;;16.48;39.82;93846.78;5014132;28;20569;-86
2024/01/23 06:01:08;;;;;;;162.95;50.95;;;;;;;16.51;40.03;93860.19;5031571;28;20491;-87
2024/01/23 06:03:33;;;;;;;174.38;55.05;;;;;;;16.51;39.88;93854.75;5011306;28;20105;-86
2024/01/23 06:05:59;;;;;;;177.68;52.88;;;;;;;16.55;40.12;93854.53;5028074;28;20041;-85
2024/01/23 06:08:24;;;;;;;76.22;34.72;;;;;;;16.35;40.31;93869.78;5045159;28;20136;-83
2024/01/23 06:10:50;;;;;;;90.50;39.92;;;;;;;16.41;40.14;93862.38;5059222;28;20063;-83
2024/01/23 06:13:17;;;;;;;178.65;86.18;;;;;;;16.43;40.17;93864.63;5033928;28;20774;-86
2024/01/23 06:15:42;;;;;;;110.35;47.50;;;;;;;16.50;40.09;93872.34;5034996;28;20047;-84
2024/01/23 06:18:08;;;;;;;119.43;52.10;;;;;;;16.45;39.84;93870.34;5011568;28;20029;-84
2024/01/23 06:20:33;;;;;;;122.38;55.47;;;;;;;16.46;39.80;93875.31;5017974;28;20036;-83
2024/01/23 06:22:59;;;;;;;153.77;60.85;;;;;;;16.54;39.86;93880.31;5061557;28;20110;-85
2024/01/23 06:25:24;;;;;;;198.13;74.95;;;;;;;16.51;40.31;93882.03;5022517;28;20056;-82
2024/01/23 06:27:49;;;;;;;184.55;74.65;;;;;;;16.54;40.00;93888.50;5011457;28;20045;-83
2024/01/23 06:30:15;;;;;;;176.10;84.82;;;;;;;16.52;40.00;93899.91;5047311;28;20075;-82
2024/01/23 06:32:41;;;;;;;250.50;103.43;;;;;;;16.55;40.31;93901.66;5046276;28;20495;-83
2024/01/23 06:35:07;;;;;;;257.17;100.70;;;;;;;16.56;40.13;93911.34;5028721;28;20048;-83
2024/01/23 06:37:33;;;;;;;255.27;107.40;;;;;;;16.55;39.55;93907.13;5041234;28;20040;-82
2024/01/23 06:39:59;;;;;;;275.63;124.78;;;;;;;16.61;39.82;93909.91;5046582;28;20041;-83
2024/01/23 06:42:25;;;;;;;253.50;117.82;;;;;;;16.52;39.98;93918.25;5045556;28;20629;-83
2024/01/23 06:44:50;;;;;;;248.45;115.20;;;;;;;16.56;39.86;93913.34;5041940;28;20150;-83
2024/01/23 06:47:17;;;;;;;225.30;108.70;;;;;;;16.62;39.78;93919.59;5004420;28;20407;-82
2024/01/23 06:49:42;;;;;;;244.07;110.50;;;;;;;16.63;39.85;93918.34;5035628;28;20045;-82
2024/01/23 06:52:08;;;;;;;243.60;109.70;;;;;;;16.59;40.27;93921.31;5041941;28;20033;-85
2024/01/23 06:54:34;;;;;;;238.30;117.07;;;;;;;16.59;39.84;93934.94;5032052;28;20102;-83
2024/01/23 06:57:00;;;;;;;236.93;114.32;;;;;;;16.60;40.04;93928.25;5019358;28;20047;-84
2024/01/23 06:59:29;;;;;;;251.52;124.07;;;;;;;16.54;40.15;93924.72;5038940;28;20041;-81
2024/01/23 07:01:55;;;;;;;278.10;130.45;;;;;;;16.57;39.78;93934.69;5048311;28;20513;-81
2024/01/23 07:04:20;;;;;;;233.35;116.65;;;;;;;16.63;40.12;93948.38;5046453;28;20048;-83
2024/01/23 07:06:46;;;;;;;243.85;120.47;;;;;;;16.64;39.84;93936.25;5051964;28;20044;-84
2024/01/23 07:09:12;;;;;;;248.23;120.00;;;;;;;16.66;39.92;93939.25;5046225;28;20055;-81
2024/01/23 07:11:40;;;;;;;250.02;119.38;;;;;;;16.64;39.85;93937.00;5056979;28;20108;-83
2024/01/23 07:14:06;;;;;;;243.13;118.05;;;;;;;16.61;40.05;93942.66;5064390;28;20588;-81
2024/01/23 07:16:31;;;;;;;231.93;114.25;;;;;;;16.63;40.01;93938.22;5035734;28;20044;-82
2024/01/23 07:18:57;;;;;;;225.73;111.38;;;;;;;16.65;40.20;93946.69;5072100;28;20037;-83
2024/01/23 07:21:22;;;;;;;219.27;114.60;;;;;;;16.62;39.61;93949.59;5059837;28;20455;-85
2024/01/23 07:23:48;;;;;;;232.77;114.80;;;;;;;16.65;39.83;93954.88;5060724;28;20045;-83
2024/01/23 07:26:13;;;;;;;219.63;112.45;;;;;;;16.61;40.13;93959.78;5051668;28;20036;-81
2024/01/23 07:28:39;;;;;;;233.73;119.07;;;;;;;16.59;39.87;93956.03;5070678;28;20422;-82
2024/01/23 07:31:04;;;;;;;212.25;112.60;;;;;;;16.67;39.57;93960.56;5064784;28;20526;-85
2024/01/23 07:33:30;;;;;;;233.85;115.68;;;;;;;16.66;40.03;93961.84;5037016;28;20033;-81
2024/01/23 07:35:55;;;;;;;237.20;114.70;;;;;;;16.67;40.01;93960.56;5048621;28;20041;-82
2024/01/23 07:38:21;;;;;;;215.43;106.90;;;;;;;16.64;39.72;93960.81;5028982;28;20037;-81
2024/01/23 07:40:46;;;;;;;239.82;112.93;;;;;;;16.61;39.72;93959.78;5016679;28;20537;-81
2024/01/23 07:43:12;;;;;;;227.32;108.63;;;;;;;16.65;40.09;93971.25;5024672;28;20064;-82
2024/01/23 07:45:37;;;;;;;227.70;116.07;;;;;;;16.65;40.22;93979.44;5023080;28;20128;-85
2024/01/23 07:48:04;;;;;;;214.05;112.13;;;;;;;16.66;39.99;93977.47;5023054;28;20029;-85
2024/01/23 07:50:29;;;;;;;222.77;108.50;;;;;;;16.61;40.38;93987.06;5014179;28;20511;-82
2024/01/23 07:52:55;;;;;;;209.35;105.82;;;;;;;16.60;40.23;93980.13;5048710;28;20075;-82
2024/01/23 07:55:22;;;;;;;185.05;102.97;;;;;;;16.67;40.21;93982.41;5057188;28;20458;-81
2024/01/23 07:57:48;;;;;;;226.80;111.78;;;;;;;16.60;40.79;93984.81;5057850;28;20065;-81
2024/01/23 08:00:17;;;;;;;225.15;113.00;;;;;;;16.60;40.35;93991.03;5049723;28;20047;-87
2024/01/23 08:02:42;;;;;;;209.85;111.40;;;;;;;16.63;40.54;93995.56;5014747;28;20045;-82
2024/01/23 08:05:09;;;;;;;227.50;117.55;;;;;;;16.59;39.99;94007.91;5050716;28;20596;-83
2024/01/23 08:07:34;;;;;;;209.55;114.60;;;;;;;16.68;40.27;94007.72;5051269;28;20033;-82
2024/01/23 08:10:00;;;;;;;206.73;114.80;;;;;;;16.64;40.25;94016.16;5034225;28;20041;-83
2024/01/23 08:12:25;;;;;;;238.82;123.68;;;;;;;16.60;40.25;94029.25;5020501;28;20412;-82
2024/01/23 08:14:51;;;;;;;232.77;122.32;;;;;;;16.56;40.15;94031.44;5065268;28;20067;-82
2024/01/23 08:17:18;;;;;;;221.00;118.50;;;;;;;16.65;40.62;94044.22;5048683;28;20072;-84
2024/01/23 08:19:43;;;;;;;231.48;118.38;;;;;;;16.65;40.77;94036.03;5049763;28;20047;-82
2024/01/23 08:22:09;;;;;;;240.25;125.97;;;;;;;16.57;40.86;94029.47;5042311;28;20044;-91
2024/01/23 08:24:35;;;;;;;248.88;135.80;;;;;;;16.60;40.70;94034.69;5075192;28;20109;-81
2024/01/23 08:27:00;;;;;;;251.18;132.55;;;;;;;16.55;40.41;94026.47;5058977;28;20063;-81
2024/01/23 08:29:26;;;;;;;226.45;119.80;;;;;;;16.58;40.21;94037.16;5050137;28;20055;-82
2024/01/23 08:31:51;;;;;;;241.55;131.70;;;;;;;16.56;40.48;94052.53;5049547;28;20465;-81
2024/01/23 08:34:16;;;;;;;262.65;144.20;;;;;;;16.62;40.63;94047.88;5080939;28;20063;-84
2024/01/23 08:36:42;;;;;;;236.45;129.52;;;;;;;16.60;40.51;94062.00;5065460;28;20481;-87
2024/01/23 08:39:08;;;;;;;234.75;131.38;;;;;;;16.61;40.88;94055.31;5080917;28;20097;-83
2024/01/23 08:41:33;;;;;;;241.68;131.68;;;;;;;16.59;40.47;94062.47;5055357;28;20422;-89
2024/01/23 08:43:58;;;;;;;280.08;155.70;;;;;;;16.54;40.95;94050.28;5061771;28;20140;-81
2024/01/23 08:46:24;;;;;;;285.45;157.07;;;;;;;16.59;40.90;94057.78;5067771;28;20082;-90
2024/01/23 08:48:49;;;;;;;250.98;138.32;;;;;;;16.68;40.71;94063.06;5078857;28;20040;-86
2024/01/23 08:51:15;;;;;;;278.33;152.65;;;;;;;16.62;40.45;94078.66;5056351;28;20487;-89
2024/01/23 08:53:40;;;;;;;285.15;162.38;;;;;;;16.66;40.74;94081.94;5062610;28;20048;-88
2024/01/23 08:56:06;;;;;;;259.95;150.35;;;;;;;16.61;40.58;94066.22;5030347;28;20038;-88
2024/01/23 08:58:31;;;;;;;278.90;160.30;;;;;;;16.64;40.46;94095.31;5056656;28;20058;-90
2024/01/23 09:00:58;;;;;;;259.35;149.80;;;;;;;16.68;40.60;94108.72;5051842;28;20037;-90
2024/01/23 09:03:23;;;;;;;272.42;154.27;;;;;;;16.69;40.67;94096.59;5050258;28;20044;-86
2024/01/23 09:05:50;;;;;;;278.52;160.00;;;;;;;16.71;40.93;94089.41;5046515;28;20416;-88
2024/01/23 09:08:15;;;;;;;251.57;144.57;;;;;;;16.70;40.93;94090.63;5042817;28;20080;-90
2024/01/23 09:10:41;;;;;;;257.13;149.13;;;;;;;16.71;40.51;94092.13;5037835;28;20037;-89
2024/01/23 09:13:07;;;;;;;234.90;133.73;;;;;;;16.75;40.38;94108.31;5046747;28;20052;-88
2024/01/23 09:15:33;;;;;;;237.77;136.02;;;;;;;16.75;40.61;94106.31;5033911;28;20566;-88
2024/01/23 09:17:58;;;;;;;258.48;137.15;;;;;;;16.78;40.50;94126.47;5067169;28;20067;-87
2024/01/23 09:20:25;;;;;;;238.55;135.18;;;;;;;16.77;40.28;94135.88;5054806;28;20063;-90
2024/01/23 09:22:51;;;;;;;259.33;149.07;;;;;;;16.71;40.54;94129.59;5054010;28;20040;-90
2024/01/23 09:25:19;;;;;;;262.33;149.90;;;;;;;16.73;40.90;94121.69;5061425;28;20400;-88
2024/01/23 09:27:45;;;;;;;258.20;145.18;;;;;;;16.77;40.58;94128.44;5023601;28;20053;-89
2024/01/23 09:30:12;;;;;;;263.63;145.18;;;;;;;16.80;40.33;94137.66;5049359;28;20044;-89
2024/01/23 09:32:38;;;;;;;243.75;139.63;;;;;;;16.77;40.43;94144.81;5049521;28;20087;-87
2024/01/23 09:35:13;;;;;;;243.98;139.15;;;;;;;16.75;40.40;94141.81;5048496;28;20278;-89
2024/01/23 09:37:39;;;;;;;242.00;136.32;;;;;;;16.80;40.78;94159.50;5047435;28;20044;-88
2024/01/23 09:40:08;;;;;;;234.40;131.20;;;;;;;16.78;40.67;94161.94;5057617;28;20052;-86
2024/01/23 09:42:35;;;;;;;226.63;126.70;;;;;;;16.75;40.62;94169.13;5044032;28;20069;-90
2024/01/23 09:45:04;;;;;;;238.32;134.00;;;;;;;16.74;41.27;94164.16;5036546;28;20040;-87
2024/01/23 09:47:30;;;;;;;246.38;139.48;;;;;;;16.74;41.01;94162.16;5065297;28;20052;-88
2024/01/23 09:49:55;;;;;;;233.38;131.02;;;;;;;16.82;40.93;94148.09;5037611;28;20049;-89
2024/01/23 09:52:21;;;;;;;241.10;137.77;;;;;;;16.79;40.55;94142.38;5034719;28;20507;-86
2024/01/23 09:54:46;;;;;;;261.73;147.55;;;;;;;16.69;40.73;94162.09;5036745;28;20402;-86
2024/01/23 09:57:12;;;;;;;254.07;144.80;;;;;;;16.76;41.11;94150.75;5022232;28;20033;-81
2024/01/23 09:59:38;;;;;;;271.23;153.32;;;;;;;16.77;41.01;94152.25;5050126;28;20388;-81
2024/01/23 10:02:04;;;;;;;270.65;159.48;;;;;;;16.77;41.03;94155.75;5050286;28;20048;-83
2024/01/23 10:04:29;;;;;;;285.05;160.65;;;;;;;16.78;40.81;94145.56;5058657;28;20040;-81
2024/01/23 10:06:54;;;;;;;249.00;146.35;;;;;;;16.80;40.92;94156.75;5023890;28;20049;-82
2024/01/23 10:09:20;;;;;;;267.27;161.20;;;;;;;16.75;41.15;94158.19;5007880;28;20091;-83
2024/01/23 10:11:46;;;;;;;279.70;167.13;;;;;;;16.82;40.70;94146.13;5026419;28;20049;-83
2024/01/23 10:14:15;;;;;;;275.77;162.02;;;;;;;16.87;40.59;94141.94;5043759;28;20039;-83
2024/01/23 10:16:40;;;;;;;276.67;160.15;;;;;;;16.86;41.11;94157.56;5033643;28;20537;-82
2024/01/23 10:19:10;;;;;;;291.55;166.88;;;;;;;16.79;40.94;94153.28;5063681;28;20059;-84
2024/01/23 10:21:36;;;;;;;260.38;152.32;;;;;;;16.83;40.73;94161.25;5037720;28;20609;-83
2024/01/23 10:24:01;;;;;;;258.77;148.43;;;;;;;16.81;41.02;94147.34;5040301;28;20135;-82
2024/01/23 10:26:27;;;;;;;236.73;134.88;;;;;;;16.82;40.86;94164.47;5066480;28;20526;-87
2024/01/23 10:28:52;;;;;;;279.83;159.93;;;;;;;16.80;40.83;94162.22;5023261;28;20047;-85
2024/01/23 10:31:18;;;;;;;250.07;146.75;;;;;;;16.90;41.26;94176.44;5029445;28;20037;-83
2024/01/23 10:33:43;;;;;;;253.05;145.40;;;;;;;16.88;41.01;94192.59;5026926;28;20504;-83
2024/01/23 10:36:09;;;;;;;274.80;154.38;;;;;;;16.85;41.08;94177.16;5030229;28;20041;-87
2024/01/23 10:38:35;;;;;;;269.88;162.52;;;;;;;16.86;40.96;94173.97;5056056;28;20045;-84
2024/01/23 10:41:02;;;;;;;293.17;169.45;;;;;;;16.86;40.70;94173.97;5059982;28;20499;-82
2024/01/23 10:43:27;;;;;;;285.92;165.27;;;;;;;16.88;41.04;94190.63;5033169;28;20462;-82
2024/01/23 10:45:54;;;;;;;264.77;148.88;;;;;;;16.87;40.90;94182.91;5024222;28;20073;-89
2024/01/23 10:48:21;;;;;;;250.40;143.25;;;;;;;16.89;40.81;94177.72;5048879;28;20104;-88
2024/01/23 10:50:46;;;;;;;260.10;143.93;;;;;;;16.84;41.02;94195.53;5057519;28;20048;-87
2024/01/23 10:53:12;;;;;;;288.33;161.07;;;;;;;16.82;40.97;94194.50;5046547;28;20033;-90
2024/01/23 10:55:38;;;;;;;285.00;161.13;;;;;;;16.86;40.91;94182.16;5042304;28;20068;-87
2024/01/23 10:58:04;;;;;;;289.23;169.25;;;;;;;16.92;41.02;94190.38;5045561;28;20047;-88
2024/01/23 11:00:30;;;;;;;300.90;173.38;;;;;;;16.92;40.94;94204.78;5047623;28;20032;-87
2024/01/23 11:02:58;;;;;;;340.55;190.50;;;;;;;16.81;40.64;94199.22;5043021;28;20053;-88